Time;durP1;ratioP1;P1;durP2;ratioP2;P2;SDS_P1;SDS_P2;PMS_P1;PMS_P2;Temp;Humidity;BMP_temperature;BMP_pressure;BME280_temperature;BME280_humidity;BME280_pressure;Samples;Min_cycle;Max_cycle;Signal;HPM_P1;HPM_P2
2021/09/08 00:02:16;;;;;;;16.20;12.45;;;;;;;23.57;63.02;100871.50;6031771;23;20003;-72
2021/09/08 00:04:41;;;;;;;17.08;12.73;;;;;;;23.57;63.11;100857.78;6029430;23;20014;-72
2021/09/08 00:07:07;;;;;;;16.75;12.68;;;;;;;23.57;62.98;100859.72;6031438;23;20773;-71
2021/09/08 00:09:32;;;;;;;16.98;12.73;;;;;;;23.55;62.80;100851.75;6029426;23;20034;-72
2021/09/08 00:11:58;;;;;;;15.68;12.13;;;;;;;23.56;62.78;100858.91;6029032;23;20017;-72
2021/09/08 00:14:24;;;;;;;15.60;11.73;;;;;;;23.56;62.85;100856.16;6031181;23;20081;-72
2021/09/08 00:16:57;;;;;;;16.00;12.43;;;;;;;23.55;62.58;100849.00;6030007;23;20034;-71
2021/09/08 00:19:22;;;;;;;16.40;13.45;;;;;;;23.54;62.96;100838.28;6028203;23;20030;-72
2021/09/08 00:21:48;;;;;;;17.45;12.65;;;;;;;23.57;62.82;100856.97;6008045;23;20006;-72
2021/09/08 00:24:14;;;;;;;17.38;12.05;;;;;;;23.55;63.06;100854.50;6054574;23;20003;-71
2021/09/08 00:26:39;;;;;;;16.38;12.25;;;;;;;23.55;63.00;100845.41;6058090;23;20010;-72
2021/09/08 00:29:06;;;;;;;16.77;12.57;;;;;;;23.54;62.69;100844.59;6030587;23;20086;-72
2021/09/08 00:31:32;;;;;;;16.45;12.65;;;;;;;23.55;62.96;100839.94;6028561;23;20106;-72
2021/09/08 00:33:58;;;;;;;15.57;13.10;;;;;;;23.48;62.78;100829.19;6007078;23;20010;-72
2021/09/08 00:36:23;;;;;;;15.73;12.00;;;;;;;23.53;62.62;100814.69;6056922;23;20010;-72
2021/09/08 00:38:49;;;;;;;15.85;12.15;;;;;;;23.54;62.74;100830.06;6032183;23;20428;-72
2021/09/08 00:41:15;;;;;;;16.13;12.70;;;;;;;23.54;62.71;100822.63;6007019;23;20061;-72
2021/09/08 00:43:41;;;;;;;16.90;13.10;;;;;;;23.54;62.82;100813.59;6055512;23;20705;-72
2021/09/08 00:46:06;;;;;;;16.85;12.30;;;;;;;23.53;62.63;100803.72;6056436;23;20014;-72
2021/09/08 00:48:32;;;;;;;17.85;12.73;;;;;;;23.49;62.71;100798.72;6030965;23;20468;-72
2021/09/08 00:50:58;;;;;;;17.17;12.68;;;;;;;23.53;62.68;100801.78;6056214;23;20433;-71
2021/09/08 00:53:24;;;;;;;17.35;12.70;;;;;;;23.53;62.68;100799.03;6054783;23;20007;-72
2021/09/08 00:55:49;;;;;;;15.95;12.05;;;;;;;23.52;62.88;100791.88;6029955;23;20025;-72
2021/09/08 00:58:15;;;;;;;16.77;13.10;;;;;;;23.53;62.68;100789.97;6059307;23;20014;-72
2021/09/08 01:00:42;;;;;;;15.88;12.60;;;;;;;23.53;62.36;100785.31;6030995;23;20007;-72
2021/09/08 01:03:08;;;;;;;17.63;12.85;;;;;;;23.49;62.79;100770.44;6030851;23;20051;-72
2021/09/08 01:05:34;;;;;;;16.52;12.10;;;;;;;23.53;62.79;100779.00;6028426;23;20085;-72
2021/09/08 01:08:00;;;;;;;18.13;13.35;;;;;;;23.52;62.67;100772.66;6031160;23;20034;-72
2021/09/08 01:10:27;;;;;;;15.38;11.45;;;;;;;23.52;62.69;100777.34;6029899;23;20109;-72
2021/09/08 01:12:52;;;;;;;18.20;13.02;;;;;;;23.51;62.54;100773.78;6007380;23;20043;-72
2021/09/08 01:15:18;;;;;;;17.30;11.70;;;;;;;23.51;62.85;100779.25;6031872;23;20011;-72
2021/09/08 01:17:44;;;;;;;15.48;11.98;;;;;;;23.50;62.80;100763.88;6029530;23;20041;-72
2021/09/08 01:20:14;;;;;;;15.00;12.25;;;;;;;23.50;62.53;100761.16;6031206;23;20015;-72
2021/09/08 01:22:49;;;;;;;15.35;12.02;;;;;;;23.49;62.74;100765.78;6028301;23;20040;-72
2021/09/08 01:25:27;;;;;;;15.70;12.13;;;;;;;23.49;62.52;100771.28;6002199;23;20089;-72
2021/09/08 01:27:54;;;;;;;15.73;11.82;;;;;;;23.50;62.79;100763.88;6003970;23;20010;-72
2021/09/08 01:30:22;;;;;;;17.02;12.32;;;;;;;23.49;62.82;100753.97;6007038;23;20007;-72
2021/09/08 01:32:49;;;;;;;15.80;11.15;;;;;;;23.48;62.69;100753.16;6029855;23;20453;-72
2021/09/08 01:35:18;;;;;;;17.00;12.27;;;;;;;23.50;62.64;100752.91;6052615;23;20007;-72
2021/09/08 01:37:46;;;;;;;15.25;12.15;;;;;;;23.48;62.88;100752.34;6004311;23;20801;-72
2021/09/08 01:40:12;;;;;;;16.20;12.27;;;;;;;23.48;62.59;100747.66;6030548;23;20386;-72
2021/09/08 01:42:37;;;;;;;17.27;12.60;;;;;;;23.50;62.72;100741.94;6053135;23;20326;-72
2021/09/08 01:45:04;;;;;;;16.88;11.85;;;;;;;23.48;62.79;100746.84;6028077;23;20013;-72
2021/09/08 01:47:29;;;;;;;15.02;11.52;;;;;;;23.48;62.73;100741.38;6055516;23;20047;-72
2021/09/08 01:49:55;;;;;;;16.73;12.15;;;;;;;23.46;62.97;100738.88;6028143;23;20392;-72
2021/09/08 01:52:20;;;;;;;15.10;11.43;;;;;;;23.48;62.73;100730.38;6056828;23;20497;-72
2021/09/08 01:54:46;;;;;;;13.48;10.82;;;;;;;23.47;62.78;100736.94;6028083;23;20013;-72
2021/09/08 01:57:12;;;;;;;17.52;13.23;;;;;;;23.48;62.63;100741.38;6056268;23;20011;-71
2021/09/08 01:59:37;;;;;;;15.85;11.90;;;;;;;23.46;62.74;100738.06;6026981;23;20010;-72
2021/09/08 02:02:03;;;;;;;17.77;12.18;;;;;;;23.45;62.77;100747.38;6051106;23;20006;-72
2021/09/08 02:04:29;;;;;;;15.57;11.07;;;;;;;23.47;62.69;100753.41;6054644;23;20051;-72
2021/09/08 02:06:54;;;;;;;17.65;12.73;;;;;;;23.47;62.93;100756.16;6055767;23;20017;-72
2021/09/08 02:09:20;;;;;;;15.20;11.93;;;;;;;23.47;62.93;100734.19;6030863;23;20444;-72
2021/09/08 02:11:46;;;;;;;17.83;12.35;;;;;;;23.45;62.65;100719.94;6027303;23;20071;-72
2021/09/08 02:14:12;;;;;;;19.13;12.00;;;;;;;23.46;62.73;100714.16;6028720;23;20085;-72
2021/09/08 02:16:38;;;;;;;17.30;12.15;;;;;;;23.45;62.70;100709.78;6054692;23;20007;-72
2021/09/08 02:19:04;;;;;;;17.75;12.38;;;;;;;23.45;62.87;100698.81;6029753;23;20002;-72
2021/09/08 02:21:29;;;;;;;16.23;12.00;;;;;;;23.46;62.78;100694.13;6029222;23;20010;-72
2021/09/08 02:23:55;;;;;;;15.85;11.98;;;;;;;23.45;62.83;100695.25;6004355;23;20010;-72
2021/09/08 02:26:21;;;;;;;16.35;12.02;;;;;;;23.45;62.89;100693.31;6029148;23;20018;-72
2021/09/08 02:28:48;;;;;;;18.02;12.40;;;;;;;23.42;62.93;100685.63;6055572;23;20003;-72
2021/09/08 02:31:13;;;;;;;17.98;13.30;;;;;;;23.45;62.84;100689.75;6055644;23;20030;-72
2021/09/08 02:33:39;;;;;;;17.90;12.85;;;;;;;23.45;62.83;100693.31;6053806;23;20534;-72
2021/09/08 02:36:05;;;;;;;16.73;12.68;;;;;;;23.45;62.80;100693.31;6029917;23;20007;-72
2021/09/08 02:38:31;;;;;;;17.95;12.35;;;;;;;23.44;62.72;100677.94;6053817;23;20006;-72
2021/09/08 02:40:59;;;;;;;18.30;12.80;;;;;;;23.44;62.92;100677.09;6030148;23;20002;-72
2021/09/08 02:43:26;;;;;;;19.75;12.73;;;;;;;23.42;62.78;100677.38;6055612;23;20356;-72
2021/09/08 02:45:51;;;;;;;19.10;12.60;;;;;;;23.44;62.75;100679.84;6031560;23;20011;-72
2021/09/08 02:48:17;;;;;;;19.65;12.55;;;;;;;23.44;62.86;100685.34;6028780;23;20062;-72
2021/09/08 02:50:43;;;;;;;18.27;12.80;;;;;;;23.44;62.95;100674.38;6054349;23;20023;-72
2021/09/08 02:53:08;;;;;;;18.10;12.20;;;;;;;23.44;62.72;100663.38;6030276;23;20747;-72
2021/09/08 02:55:34;;;;;;;17.70;12.60;;;;;;;23.44;62.71;100646.91;6031191;23;20078;-71
2021/09/08 02:57:59;;;;;;;18.90;12.60;;;;;;;23.44;62.79;100635.94;6054646;23;20406;-72
2021/09/08 03:00:25;;;;;;;19.95;12.38;;;;;;;23.43;63.05;100635.13;6056023;23;20011;-72
2021/09/08 03:02:51;;;;;;;18.70;12.85;;;;;;;23.42;62.86;100627.19;6054340;23;20007;-72
2021/09/08 03:05:16;;;;;;;19.42;12.32;;;;;;;23.43;62.84;100624.16;6053822;23;20066;-71
2021/09/08 03:07:42;;;;;;;15.93;12.43;;;;;;;23.44;63.03;100614.00;6054440;23;20017;-72
2021/09/08 03:10:08;;;;;;;17.95;12.52;;;;;;;23.42;63.00;100614.28;6055906;23;20017;-72
2021/09/08 03:12:33;;;;;;;15.60;12.52;;;;;;;23.43;63.00;100624.16;6028760;23;20420;-72
2021/09/08 03:14:59;;;;;;;17.63;13.05;;;;;;;23.42;62.91;100614.28;6006389;23;20010;-72
2021/09/08 03:17:24;;;;;;;17.40;12.35;;;;;;;23.42;62.91;100617.03;6006747;23;20126;-72
2021/09/08 03:19:50;;;;;;;17.75;12.10;;;;;;;23.42;62.94;100603.31;6055715;23;20007;-72
2021/09/08 03:22:16;;;;;;;17.55;12.00;;;;;;;23.38;62.87;100590.38;6027240;23;20077;-72
2021/09/08 03:24:41;;;;;;;15.50;12.30;;;;;;;23.42;63.00;100595.06;6054218;23;20378;-72
2021/09/08 03:27:07;;;;;;;20.20;12.07;;;;;;;23.41;62.83;100581.59;6029803;23;20538;-72
2021/09/08 03:29:32;;;;;;;18.30;12.35;;;;;;;23.40;62.85;100569.81;6007012;23;20011;-72
2021/09/08 03:31:58;;;;;;;21.25;13.27;;;;;;;23.41;63.04;100576.13;6054212;23;20034;-72
2021/09/08 03:34:24;;;;;;;16.90;12.77;;;;;;;23.42;62.96;100572.31;6055294;23;20074;-72
2021/09/08 03:36:49;;;;;;;17.73;12.25;;;;;;;23.41;62.81;100567.88;6053566;23;20711;-72
2021/09/08 03:39:15;;;;;;;18.63;13.02;;;;;;;23.39;63.02;100559.94;6031433;23;20038;-72
2021/09/08 03:41:40;;;;;;;17.60;12.75;;;;;;;23.39;62.92;100554.44;6050706;23;19999;-72
2021/09/08 03:44:06;;;;;;;17.30;12.80;;;;;;;23.38;62.84;100549.22;6055523;23;20344;-72
2021/09/08 03:46:32;;;;;;;16.95;13.07;;;;;;;23.38;62.89;100557.44;6055420;23;21052;-72
2021/09/08 03:48:57;;;;;;;16.80;11.73;;;;;;;23.40;62.83;100560.75;6027099;23;20017;-72
2021/09/08 03:51:23;;;;;;;19.35;13.00;;;;;;;23.38;62.84;100543.72;6029042;23;20014;-72
2021/09/08 03:53:48;;;;;;;14.75;11.48;;;;;;;23.36;63.01;100533.00;6056032;23;20035;-72
2021/09/08 03:56:14;;;;;;;14.55;11.63;;;;;;;23.38;62.63;100533.56;6029780;23;20007;-72
2021/09/08 03:58:39;;;;;;;16.48;12.07;;;;;;;23.39;62.86;100537.13;6054794;23;20014;-72
2021/09/08 04:01:05;;;;;;;17.58;12.00;;;;;;;23.36;62.81;100534.94;6058462;23;20003;-72
2021/09/08 04:03:31;;;;;;;17.00;11.32;;;;;;;23.38;62.64;100546.47;6059364;23;20010;-72
2021/09/08 04:05:56;;;;;;;14.98;12.38;;;;;;;23.38;62.68;100552.78;6057912;23;20131;-72
2021/09/08 04:08:22;;;;;;;17.63;12.63;;;;;;;23.38;62.86;100544.53;6056344;23;20014;-72
2021/09/08 04:10:48;;;;;;;17.98;12.88;;;;;;;23.36;62.53;100552.22;6056211;23;20337;-72
2021/09/08 04:13:13;;;;;;;16.27;12.65;;;;;;;23.38;62.61;100543.72;6058003;23;20760;-72
2021/09/08 04:15:39;;;;;;;20.10;13.35;;;;;;;23.38;62.83;100541.81;6057234;23;20695;-72
2021/09/08 04:18:04;;;;;;;16.40;12.75;;;;;;;23.35;62.72;100533.28;6033439;23;20432;-72
2021/09/08 04:20:30;;;;;;;17.45;12.63;;;;;;;23.37;62.53;100531.13;6057696;23;20006;-72
2021/09/08 04:22:56;;;;;;;17.65;12.45;;;;;;;23.36;62.57;100527.53;6055803;23;20007;-73
2021/09/08 04:25:21;;;;;;;15.73;12.60;;;;;;;23.37;62.82;100522.88;6034584;23;20011;-72
2021/09/08 04:27:47;;;;;;;16.50;12.75;;;;;;;23.36;62.75;100519.28;6058248;23;20017;-72
2021/09/08 04:30:12;;;;;;;18.60;12.73;;;;;;;23.36;62.61;100513.81;6032084;23;20010;-72
2021/09/08 04:32:38;;;;;;;20.38;13.45;;;;;;;23.36;62.75;100515.72;6029672;23;20031;-72
2021/09/08 04:35:04;;;;;;;18.13;12.52;;;;;;;23.36;62.60;100502.81;6032758;23;20018;-71
2021/09/08 04:37:32;;;;;;;19.35;13.07;;;;;;;23.35;62.49;100508.59;6057412;23;20457;-72
2021/09/08 04:39:57;;;;;;;19.13;13.18;;;;;;;23.32;62.58;100503.66;6056336;23;20011;-72
2021/09/08 04:42:23;;;;;;;18.65;13.05;;;;;;;23.36;62.65;100510.25;6033182;23;20078;-72
2021/09/08 04:44:49;;;;;;;17.63;12.70;;;;;;;23.32;62.51;100495.41;6057655;23;20006;-72
2021/09/08 04:47:14;;;;;;;17.55;13.20;;;;;;;23.35;62.64;100506.69;6032029;23;20011;-72
2021/09/08 04:49:40;;;;;;;15.98;12.07;;;;;;;23.34;62.53;100502.28;6032523;23;20007;-72
2021/09/08 04:52:06;;;;;;;16.25;13.02;;;;;;;23.35;62.50;100505.84;6032464;23;20345;-72
2021/09/08 04:54:31;;;;;;;17.77;13.02;;;;;;;23.35;62.39;100495.69;6055785;23;20011;-72
2021/09/08 04:56:57;;;;;;;16.08;12.77;;;;;;;23.34;62.60;100495.97;6033277;23;20038;-72
2021/09/08 04:59:22;;;;;;;16.80;12.98;;;;;;;23.33;62.54;100494.31;6058083;23;20003;-72
2021/09/08 05:01:48;;;;;;;17.42;12.32;;;;;;;23.32;62.57;100492.69;6058768;23;19999;-72
2021/09/08 05:04:13;;;;;;;18.80;12.55;;;;;;;23.34;62.46;100484.97;6058580;23;20452;-72
2021/09/08 05:06:39;;;;;;;20.30;13.00;;;;;;;23.33;62.39;100488.84;6055512;23;20061;-72
2021/09/08 05:09:05;;;;;;;19.45;13.25;;;;;;;23.33;62.64;100497.88;6056700;23;20077;-72
2021/09/08 05:11:30;;;;;;;18.00;12.75;;;;;;;23.34;62.40;100509.66;6031750;23;20011;-72
2021/09/08 05:13:56;;;;;;;16.70;12.23;;;;;;;23.33;62.33;100488.84;6055027;23;20011;-72
2021/09/08 05:16:21;;;;;;;17.45;12.48;;;;;;;23.33;62.37;100491.56;6059763;23;20006;-72
2021/09/08 05:18:47;;;;;;;17.42;13.40;;;;;;;23.34;62.31;100493.22;6030363;23;20010;-72
2021/09/08 05:21:13;;;;;;;19.58;13.00;;;;;;;23.33;62.32;100494.31;6031266;23;20083;-73
2021/09/08 05:23:38;;;;;;;17.60;12.35;;;;;;;23.32;62.48;100501.72;6030021;23;20006;-72
2021/09/08 05:26:06;;;;;;;18.58;12.60;;;;;;;23.31;62.39;100493.75;6053667;23;20424;-72
2021/09/08 05:28:32;;;;;;;18.70;12.55;;;;;;;23.32;62.25;100490.75;6054641;23;20090;-72
2021/09/08 05:30:58;;;;;;;21.33;12.85;;;;;;;23.33;62.40;100491.56;6056371;23;20003;-72
2021/09/08 05:33:24;;;;;;;19.67;13.50;;;;;;;23.31;62.18;100491.81;6008562;23;20015;-72
2021/09/08 05:35:50;;;;;;;16.85;12.55;;;;;;;23.31;62.39;100491.00;6029866;23;20356;-72
2021/09/08 05:38:15;;;;;;;20.58;12.63;;;;;;;23.31;62.17;100494.56;6032168;23;20014;-72
2021/09/08 05:40:41;;;;;;;19.35;13.55;;;;;;;23.32;62.37;100487.19;6031563;23;20324;-72
2021/09/08 05:43:07;;;;;;;19.83;13.38;;;;;;;23.30;62.25;100481.13;6032261;23;20861;-72
2021/09/08 05:45:32;;;;;;;16.70;12.98;;;;;;;23.31;62.38;100489.09;6030135;23;20441;-73
2021/09/08 05:47:58;;;;;;;18.40;13.13;;;;;;;23.31;62.29;100478.13;6056465;23;20019;-73
2021/09/08 05:50:23;;;;;;;17.70;12.98;;;;;;;23.31;62.28;100477.28;6030076;23;20006;-72
2021/09/08 05:52:50;;;;;;;19.02;13.52;;;;;;;23.30;62.30;100475.66;6055966;23;20049;-72
2021/09/08 05:55:16;;;;;;;16.83;13.20;;;;;;;23.29;62.19;100460.28;6056511;23;20066;-72
2021/09/08 05:57:41;;;;;;;16.92;13.00;;;;;;;23.27;62.18;100461.38;6057215;23;20154;-72
2021/09/08 06:00:07;;;;;;;18.90;12.65;;;;;;;23.29;62.22;100463.00;6030308;23;20009;-72
2021/09/08 06:02:33;;;;;;;17.65;12.95;;;;;;;23.30;61.99;100465.50;6031292;23;20013;-72
2021/09/08 06:04:58;;;;;;;19.83;13.13;;;;;;;23.30;61.85;100467.44;6032057;23;20010;-72
2021/09/08 06:07:24;;;;;;;17.42;13.07;;;;;;;23.30;62.09;100459.19;6056590;23;20042;-72
2021/09/08 06:09:50;;;;;;;15.85;12.30;;;;;;;23.26;62.01;100459.72;6029256;23;20017;-72
2021/09/08 06:12:15;;;;;;;16.65;12.73;;;;;;;23.30;62.16;100464.69;6054308;23;20082;-72
2021/09/08 06:14:41;;;;;;;18.13;12.90;;;;;;;23.29;62.04;100463.00;6006811;23;20066;-73
2021/09/08 06:17:06;;;;;;;18.85;13.68;;;;;;;23.26;61.88;100457.00;6054429;23;20003;-73
2021/09/08 06:19:33;;;;;;;16.00;12.00;;;;;;;23.27;61.80;100461.38;6026829;23;20019;-72
2021/09/08 06:21:58;;;;;;;18.48;13.48;;;;;;;23.29;61.76;100457.53;6029900;23;20421;-73
2021/09/08 06:24:24;;;;;;;19.83;13.35;;;;;;;23.28;61.86;100456.72;6055149;23;20006;-72
2021/09/08 06:26:50;;;;;;;22.98;12.60;;;;;;;23.30;62.04;100459.19;6032730;23;20010;-73
2021/09/08 06:29:16;;;;;;;18.13;12.63;;;;;;;23.30;62.04;100453.72;6055442;23;20006;-72
2021/09/08 06:31:42;;;;;;;19.13;13.07;;;;;;;23.30;62.19;100453.72;6032115;23;20010;-73
2021/09/08 06:34:09;;;;;;;18.33;11.90;;;;;;;23.29;62.12;100461.13;6055702;23;20017;-73
2021/09/08 06:36:35;;;;;;;18.30;12.18;;;;;;;23.27;62.23;100455.06;6055410;23;20025;-73
2021/09/08 06:39:00;;;;;;;17.63;12.23;;;;;;;23.30;62.07;100470.16;6056245;23;20011;-72
2021/09/08 06:41:26;;;;;;;16.73;12.20;;;;;;;23.31;62.29;100477.28;6031965;23;20007;-73
2021/09/08 06:43:52;;;;;;;20.10;13.10;;;;;;;23.30;62.05;100460.00;6032257;23;20010;-72
2021/09/08 06:46:19;;;;;;;17.58;12.45;;;;;;;23.27;62.11;100455.88;6029919;23;20014;-72
2021/09/08 06:48:45;;;;;;;19.13;12.57;;;;;;;23.31;62.39;100452.59;6055117;23;20050;-72
2021/09/08 06:51:11;;;;;;;16.25;11.68;;;;;;;23.31;62.15;100461.66;6056564;23;20007;-72
2021/09/08 06:53:37;;;;;;;16.85;11.63;;;;;;;23.32;62.10;100459.75;6031578;23;20017;-72
2021/09/08 06:56:03;;;;;;;15.85;11.35;;;;;;;23.32;62.06;100459.75;6031017;23;20007;-72
2021/09/08 06:58:29;;;;;;;18.88;12.02;;;;;;;23.31;62.28;100456.16;6030065;23;20579;-71
2021/09/08 07:00:55;;;;;;;18.27;12.48;;;;;;;23.30;62.19;100443.56;6056754;23;20086;-72
2021/09/08 07:03:20;;;;;;;20.20;12.02;;;;;;;23.33;61.98;100444.94;6030263;23;20341;-71
2021/09/08 07:05:46;;;;;;;16.33;12.32;;;;;;;23.33;61.82;100447.69;6031388;23;20117;-71
2021/09/08 07:08:14;;;;;;;15.40;11.43;;;;;;;23.32;61.77;100435.88;6055784;23;20007;-71
2021/09/08 07:10:40;;;;;;;16.15;11.82;;;;;;;23.34;61.87;100441.09;6055386;23;20029;-71
2021/09/08 07:13:06;;;;;;;18.00;12.45;;;;;;;23.32;61.85;100430.41;6055425;23;20733;-72
2021/09/08 07:15:33;;;;;;;17.23;11.68;;;;;;;23.34;61.50;100428.22;6031452;23;20015;-72
2021/09/08 07:17:59;;;;;;;16.90;11.52;;;;;;;23.34;61.58;100425.47;6034572;23;20345;-71
2021/09/08 07:20:24;;;;;;;15.40;11.48;;;;;;;23.32;61.52;100427.66;6032860;23;20425;-72
2021/09/08 07:22:50;;;;;;;19.67;12.30;;;;;;;23.32;61.22;100429.59;6056295;23;20010;-71
2021/09/08 07:25:16;;;;;;;19.40;12.63;;;;;;;23.30;61.13;100429.84;6032074;23;20463;-74
2021/09/08 07:27:44;;;;;;;16.95;12.75;;;;;;;23.30;60.95;100427.09;6030405;23;20018;-72
2021/09/08 07:30:10;;;;;;;17.88;11.77;;;;;;;23.30;60.94;100415.31;6029794;23;20003;-71
2021/09/08 07:32:36;;;;;;;17.80;11.95;;;;;;;23.30;61.02;100424.34;6030968;23;20063;-71
2021/09/08 07:35:02;;;;;;;20.98;12.52;;;;;;;23.30;60.90;100432.59;6031266;23;20322;-72
2021/09/08 07:37:28;;;;;;;21.80;13.50;;;;;;;23.29;60.78;100430.94;6033125;23;20019;-72
2021/09/08 07:39:54;;;;;;;20.23;12.98;;;;;;;23.29;60.73;100428.19;6058735;23;20016;-72
2021/09/08 07:42:20;;;;;;;23.08;13.65;;;;;;;23.22;60.83;100422.94;6032249;23;20051;-72
2021/09/08 07:44:46;;;;;;;18.77;11.95;;;;;;;23.25;60.62;100427.88;6032685;23;20006;-72
2021/09/08 07:47:11;;;;;;;16.88;12.07;;;;;;;23.24;60.83;100428.19;6033857;23;20015;-71
2021/09/08 07:49:37;;;;;;;18.13;12.13;;;;;;;23.22;60.53;100427.63;6031677;23;20338;-72
2021/09/08 07:52:04;;;;;;;22.17;13.60;;;;;;;23.26;60.60;100415.03;6055790;23;20007;-72
2021/09/08 07:54:30;;;;;;;24.40;13.23;;;;;;;23.22;60.49;100422.94;6032688;23;20014;-71
2021/09/08 07:56:55;;;;;;;22.02;13.07;;;;;;;23.20;60.78;100418.81;6058739;23;20049;-72
2021/09/08 07:59:21;;;;;;;22.70;13.80;;;;;;;23.22;60.70;100431.16;6057527;23;20007;-71
2021/09/08 08:01:47;;;;;;;21.80;13.05;;;;;;;23.22;60.64;100422.94;6035371;23;19999;-71
2021/09/08 08:04:12;;;;;;;17.60;12.20;;;;;;;23.27;60.59;100422.16;6061364;23;20606;-71
2021/09/08 08:06:38;;;;;;;20.13;12.90;;;;;;;23.30;60.85;100420.78;6031788;23;20500;-74
2021/09/08 08:09:05;;;;;;;17.30;12.20;;;;;;;23.32;60.82;100427.66;6033666;23;20011;-72
2021/09/08 08:11:31;;;;;;;21.40;12.65;;;;;;;23.31;61.05;100416.94;6008903;23;20006;-74
2021/09/08 08:13:56;;;;;;;20.88;12.93;;;;;;;23.32;61.11;100415.88;6032132;23;20035;-72
2021/09/08 08:16:22;;;;;;;21.52;14.00;;;;;;;23.36;61.30;100416.97;6034134;23;20017;-74
2021/09/08 08:18:47;;;;;;;21.30;13.25;;;;;;;23.37;61.29;100411.22;6060039;23;20011;-73
2021/09/08 08:21:13;;;;;;;20.10;12.85;;;;;;;23.42;61.17;100424.13;6031307;23;20794;-74
2021/09/08 08:23:39;;;;;;;23.60;13.55;;;;;;;23.44;60.99;100410.94;6061005;23;20175;-72
2021/09/08 08:26:04;;;;;;;23.45;13.18;;;;;;;23.46;61.24;100406.84;6059877;23;20474;-73
2021/09/08 08:28:32;;;;;;;21.65;12.57;;;;;;;23.48;61.36;100406.59;6061149;23;20030;-73
2021/09/08 08:30:59;;;;;;;27.05;13.15;;;;;;;23.47;61.24;100404.91;6061596;23;20007;-74
2021/09/08 08:33:28;;;;;;;24.27;13.45;;;;;;;23.53;60.98;100414.81;6061705;23;20003;-74
2021/09/08 08:35:54;;;;;;;21.13;12.82;;;;;;;23.56;61.16;100416.22;6036102;23;20011;-74
2021/09/08 08:38:21;;;;;;;24.85;13.90;;;;;;;23.59;60.90;100419.22;6061424;23;20101;-75
2021/09/08 08:40:48;;;;;;;25.42;13.32;;;;;;;23.62;61.01;100423.34;6035815;23;20034;-73
2021/09/08 08:43:13;;;;;;;34.15;13.85;;;;;;;23.65;61.17;100420.06;6012812;23;20002;-73
2021/09/08 08:45:39;;;;;;;32.53;13.52;;;;;;;23.65;61.12;100420.88;6060915;23;20010;-73
2021/09/08 08:48:05;;;;;;;23.73;12.82;;;;;;;23.66;61.19;100419.81;6036568;23;20041;-72
2021/09/08 08:50:31;;;;;;;22.10;12.65;;;;;;;23.69;61.17;100415.69;6035888;23;20074;-73
2021/09/08 08:52:57;;;;;;;26.65;12.82;;;;;;;23.69;61.41;100418.44;6036826;23;20018;-73
2021/09/08 08:55:24;;;;;;;22.55;12.93;;;;;;;23.68;61.15;100412.13;6012965;23;20015;-73
2021/09/08 08:57:49;;;;;;;22.75;12.48;;;;;;;23.68;61.68;100420.38;6036375;23;20082;-73
2021/09/08 09:00:19;;;;;;;20.42;12.15;;;;;;;23.68;61.51;100425.00;6036384;23;20086;-73
2021/09/08 09:02:49;;;;;;;21.98;12.88;;;;;;;23.67;61.40;100437.91;6062102;23;20014;-73
2021/09/08 09:05:37;;;;;;;21.15;12.65;;;;;;;23.66;61.33;100440.94;6036285;23;20373;-73
2021/09/08 09:08:06;;;;;;;22.08;12.95;;;;;;;23.66;61.56;100452.75;6062057;23;20073;-72
2021/09/08 09:10:32;;;;;;;20.55;12.90;;;;;;;23.64;61.39;100438.44;6061341;23;20002;-73
2021/09/08 09:12:58;;;;;;;20.58;13.77;;;;;;;23.69;61.35;100443.13;6012843;23;20014;-72
2021/09/08 09:15:24;;;;;;;24.40;13.60;;;;;;;23.71;61.04;100438.22;6036104;23;20352;-72
2021/09/08 09:17:52;;;;;;;20.15;13.02;;;;;;;23.74;61.15;100450.56;6036169;23;20290;-73
2021/09/08 09:20:26;;;;;;;26.55;12.88;;;;;;;23.75;61.19;100444.00;6036696;23;20002;-73
2021/09/08 09:22:54;;;;;;;20.00;12.90;;;;;;;23.76;61.16;100451.13;6061656;23;20340;-73
2021/09/08 09:25:35;;;;;;;34.00;16.63;;;;;;;23.76;61.07;100440.16;6036136;23;20118;-73
2021/09/08 09:28:03;;;;;;;24.90;13.48;;;;;;;23.76;61.01;100442.91;6035553;23;20010;-74
2021/09/08 09:30:34;;;;;;;22.20;12.90;;;;;;;23.74;60.90;100445.94;6059303;23;20014;-73
2021/09/08 09:33:01;;;;;;;25.13;14.45;;;;;;;23.74;61.07;100445.09;6034024;23;20527;-73
2021/09/08 09:35:29;;;;;;;23.08;13.50;;;;;;;23.74;61.23;100443.19;6059101;23;20338;-74
2021/09/08 09:37:57;;;;;;;27.50;13.45;;;;;;;23.75;61.22;100439.34;6033943;23;20034;-74
2021/09/08 09:40:26;;;;;;;22.52;12.45;;;;;;;23.73;61.17;100435.22;6010425;23;20057;-72
2021/09/08 09:42:52;;;;;;;25.48;13.80;;;;;;;23.80;61.19;100446.75;6034251;23;20010;-74
2021/09/08 09:45:18;;;;;;;22.73;13.05;;;;;;;23.82;60.84;100439.09;6061518;23;20007;-72
2021/09/08 09:47:45;;;;;;;20.73;13.00;;;;;;;23.85;60.75;100441.28;6011735;23;20010;-73
2021/09/08 09:50:19;;;;;;;19.67;13.02;;;;;;;23.88;60.76;100443.47;6061233;23;20006;-72
2021/09/08 09:52:52;;;;;;;20.33;12.60;;;;;;;23.90;60.54;100438.53;6061478;23;20022;-72
2021/09/08 09:55:18;;;;;;;24.00;13.05;;;;;;;23.92;60.48;100436.31;6035179;23;20015;-72
2021/09/08 09:57:44;;;;;;;21.60;12.90;;;;;;;23.94;60.37;100441.56;6035072;23;20010;-72
2021/09/08 10:00:11;;;;;;;21.45;12.93;;;;;;;23.96;60.48;100429.22;6034496;23;20070;-72
2021/09/08 10:02:38;;;;;;;22.67;13.50;;;;;;;23.97;60.44;100424.53;6033418;23;20130;-73
2021/09/08 10:05:04;;;;;;;20.80;13.30;;;;;;;23.98;60.33;100426.19;6034091;23;20013;-72
2021/09/08 10:07:30;;;;;;;20.95;12.65;;;;;;;24.00;60.34;100422.09;6034311;23;20006;-72
2021/09/08 10:10:13;;;;;;;21.20;12.52;;;;;;;24.04;60.35;100425.91;6034038;23;20010;-72
2021/09/08 10:12:59;;;;;;;20.23;12.15;;;;;;;24.07;60.14;100433.59;6059875;23;20002;-72
2021/09/08 10:15:26;;;;;;;22.48;12.95;;;;;;;24.10;60.10;100432.22;6009480;23;20010;-72
2021/09/08 10:17:53;;;;;;;20.00;13.05;;;;;;;24.12;60.23;100428.13;6011483;23;20334;-72
2021/09/08 10:20:20;;;;;;;20.30;12.45;;;;;;;24.12;60.24;100435.53;6035495;23;20437;-72
2021/09/08 10:22:48;;;;;;;17.55;12.57;;;;;;;24.13;60.26;100440.78;6011926;23;20459;-72
2021/09/08 10:25:16;;;;;;;22.80;12.77;;;;;;;24.14;60.20;100436.09;6034767;23;20010;-72
2021/09/08 10:27:42;;;;;;;18.85;12.70;;;;;;;24.16;60.20;100435.81;6035414;23;20006;-72
2021/09/08 10:30:09;;;;;;;20.25;12.07;;;;;;;24.14;60.24;100439.66;6060682;23;20074;-72
2021/09/08 10:32:35;;;;;;;19.13;12.13;;;;;;;24.18;60.38;100439.94;6060179;23;20031;-72
2021/09/08 10:35:15;;;;;;;20.15;11.95;;;;;;;24.16;60.32;100435.81;6059866;23;20012;-72
2021/09/08 10:37:59;;;;;;;19.52;11.63;;;;;;;24.15;60.33;100432.25;6035321;23;20512;-72
2021/09/08 10:40:27;;;;;;;18.52;11.65;;;;;;;24.15;60.46;100437.72;6060595;23;20440;-72
2021/09/08 10:42:59;;;;;;;19.40;11.95;;;;;;;24.12;60.62;100433.63;6012144;23;20355;-72
2021/09/08 10:45:27;;;;;;;18.23;11.60;;;;;;;24.11;60.57;100440.22;6060475;23;20425;-72
2021/09/08 10:47:54;;;;;;;20.85;12.05;;;;;;;24.11;60.61;100434.72;6060611;23;20075;-73
2021/09/08 10:50:49;;;;;;;17.73;11.57;;;;;;;24.09;60.78;100439.66;6035201;23;20034;-73
2021/09/08 10:53:17;;;;;;;16.73;11.40;;;;;;;24.07;60.75;100435.53;6005130;23;20018;-72
2021/09/08 10:55:44;;;;;;;17.17;10.70;;;;;;;24.07;60.77;100428.13;6060645;23;20459;-72
2021/09/08 10:58:10;;;;;;;18.25;11.13;;;;;;;24.04;60.92;100434.16;6035357;23;20014;-73
2021/09/08 11:00:39;;;;;;;16.60;11.77;;;;;;;24.04;60.89;100436.09;6060526;23;20501;-73
2021/09/08 11:03:08;;;;;;;18.42;11.23;;;;;;;24.00;61.03;100435.81;6011590;23;20003;-72
2021/09/08 11:05:50;;;;;;;16.80;12.13;;;;;;;23.99;60.87;100423.16;6060394;23;20003;-72
2021/09/08 11:08:32;;;;;;;15.70;11.15;;;;;;;23.95;61.28;100413.84;6060353;23;20557;-72